sensor_id;sensor_type;location;lat;lon;timestamp;pressure;altitude;pressure_sealevel;temperature;humidity
35676;BME280;21790;42.668;23.298;2022-09-03T00:11:03;94681.25;;;24.19;52.18
35676;BME280;21790;42.668;23.298;2022-09-03T00:13:35;94683.66;;;23.94;52.53
35676;BME280;21790;42.668;23.298;2022-09-03T00:16:05;94676.25;;;23.91;52.91
35676;BME280;21790;42.668;23.298;2022-09-03T00:18:40;94678.00;;;23.94;52.44
35676;BME280;21790;42.668;23.298;2022-09-03T00:21:10;94684.81;;;23.99;52.36
35676;BME280;21790;42.668;23.298;2022-09-03T00:23:41;94684.81;;;23.99;52.39
35676;BME280;21790;42.668;23.298;2022-09-03T00:28:49;94669.13;;;24.11;51.96
35676;BME280;21790;42.668;23.298;2022-09-03T00:31:24;94670.75;;;24.06;51.94
35676;BME280;21790;42.668;23.298;2022-09-03T00:33:55;94665.53;;;24.10;51.93
35676;BME280;21790;42.668;23.298;2022-09-03T00:36:33;94673.16;;;24.02;51.77
35676;BME280;21790;42.668;23.298;2022-09-03T00:39:00;94668.56;;;23.92;52.12
35676;BME280;21790;42.668;23.298;2022-09-03T00:41:35;94663.00;;;23.99;51.90
35676;BME280;21790;42.668;23.298;2022-09-03T00:46:59;94664.16;;;24.04;52.15
35676;BME280;21790;42.668;23.298;2022-09-03T00:55:21;94680.25;;;23.96;52.08
35676;BME280;21790;42.668;23.298;2022-09-03T01:00:56;94687.69;;;23.86;52.22
35676;BME280;21790;42.668;23.298;2022-09-03T01:14:04;94677.78;;;24.13;51.04
35676;BME280;21790;42.668;23.298;2022-09-03T01:22:25;94674.69;;;24.03;50.93
35676;BME280;21790;42.668;23.298;2022-09-03T01:30:39;94691.41;;;23.81;51.53
35676;BME280;21790;42.668;23.298;2022-09-03T01:44:19;94701.75;;;23.99;51.20
35676;BME280;21790;42.668;23.298;2022-09-03T01:46:57;94697.63;;;24.00;50.88
35676;BME280;21790;42.668;23.298;2022-09-03T01:52:51;94679.44;;;23.88;51.01
35676;BME280;21790;42.668;23.298;2022-09-03T01:58:10;94683.56;;;23.87;51.07
35676;BME280;21790;42.668;23.298;2022-09-03T02:00:39;94686.53;;;23.81;51.45
35676;BME280;21790;42.668;23.298;2022-09-03T02:03:09;94675.19;;;23.94;50.83
35676;BME280;21790;42.668;23.298;2022-09-03T02:05:35;94678.31;;;23.91;50.93
35676;BME280;21790;42.668;23.298;2022-09-03T02:08:06;94673.97;;;23.90;50.98
35676;BME280;21790;42.668;23.298;2022-09-03T02:10:38;94681.00;;;23.96;51.02
35676;BME280;21790;42.668;23.298;2022-09-03T02:13:29;94685.50;;;23.92;51.47
35676;BME280;21790;42.668;23.298;2022-09-03T02:15:57;94694.50;;;23.90;51.13
35676;BME280;21790;42.668;23.298;2022-09-03T02:18:28;94695.97;;;23.84;51.26
35676;BME280;21790;42.668;23.298;2022-09-03T02:20:56;94698.97;;;23.86;51.03
35676;BME280;21790;42.668;23.298;2022-09-03T02:23:22;94693.59;;;23.74;51.09
35676;BME280;21790;42.668;23.298;2022-09-03T02:25:51;94687.75;;;23.72;51.44
35676;BME280;21790;42.668;23.298;2022-09-03T02:28:19;94693.44;;;23.59;51.77
35676;BME280;21790;42.668;23.298;2022-09-03T02:30:46;94697.03;;;23.60;51.30
35676;BME280;21790;42.668;23.298;2022-09-03T02:33:13;94700.47;;;23.66;51.25
35676;BME280;21790;42.668;23.298;2022-09-03T02:35:39;94702.19;;;23.69;51.06
35676;BME280;21790;42.668;23.298;2022-09-03T02:38:10;94710.34;;;23.72;51.51
35676;BME280;21790;42.668;23.298;2022-09-03T02:40:35;94710.25;;;23.65;51.55
35676;BME280;21790;42.668;23.298;2022-09-03T02:43:02;94712.13;;;23.49;51.75
35676;BME280;21790;42.668;23.298;2022-09-03T02:45:30;94707.84;;;23.69;51.53
35676;BME280;21790;42.668;23.298;2022-09-03T02:47:58;94715.50;;;23.82;51.02
35676;BME280;21790;42.668;23.298;2022-09-03T02:50:24;94721.31;;;23.63;51.41
35676;BME280;21790;42.668;23.298;2022-09-03T02:52:51;94721.63;;;23.72;51.52
35676;BME280;21790;42.668;23.298;2022-09-03T02:55:17;94711.28;;;23.75;51.38
35676;BME280;21790;42.668;23.298;2022-09-03T02:57:43;94719.25;;;23.63;51.60
35676;BME280;21790;42.668;23.298;2022-09-03T03:00:09;94715.34;;;23.66;51.26
35676;BME280;21790;42.668;23.298;2022-09-03T03:02:35;94716.94;;;23.75;51.03
35676;BME280;21790;42.668;23.298;2022-09-03T03:05:00;94716.22;;;23.61;51.40
35676;BME280;21790;42.668;23.298;2022-09-03T03:07:27;94712.53;;;23.66;51.20
35676;BME280;21790;42.668;23.298;2022-09-03T03:09:55;94706.91;;;23.53;51.15
35676;BME280;21790;42.668;23.298;2022-09-03T03:12:21;94705.19;;;23.50;51.20
35676;BME280;21790;42.668;23.298;2022-09-03T03:14:46;94705.13;;;23.63;51.22
35676;BME280;21790;42.668;23.298;2022-09-03T03:17:12;94700.78;;;23.62;51.01
35676;BME280;21790;42.668;23.298;2022-09-03T03:19:37;94702.44;;;23.58;51.02
35676;BME280;21790;42.668;23.298;2022-09-03T03:22:03;94699.38;;;23.69;51.00
35676;BME280;21790;42.668;23.298;2022-09-03T03:24:28;94705.50;;;23.60;51.15
35676;BME280;21790;42.668;23.298;2022-09-03T03:26:55;94701.25;;;23.66;50.99
35676;BME280;21790;42.668;23.298;2022-09-03T03:29:22;94707.53;;;23.59;51.14
35676;BME280;21790;42.668;23.298;2022-09-03T03:31:49;94704.09;;;23.53;51.22
35676;BME280;21790;42.668;23.298;2022-09-03T03:34:15;94709.94;;;23.55;51.26
35676;BME280;21790;42.668;23.298;2022-09-03T03:36:40;94707.25;;;23.50;51.23
35676;BME280;21790;42.668;23.298;2022-09-03T03:39:06;94703.13;;;23.51;51.27
35676;BME280;21790;42.668;23.298;2022-09-03T03:41:33;94707.53;;;23.59;51.11
35676;BME280;21790;42.668;23.298;2022-09-03T03:44:04;94703.88;;;23.51;51.13
35676;BME280;21790;42.668;23.298;2022-09-03T03:46:38;94716.03;;;23.46;51.28
35676;BME280;21790;42.668;23.298;2022-09-03T03:49:05;94708.78;;;23.38;51.46
35676;BME280;21790;42.668;23.298;2022-09-03T03:51:31;94706.81;;;23.46;51.40
35676;BME280;21790;42.668;23.298;2022-09-03T03:53:57;94708.00;;;23.37;51.30
35676;BME280;21790;42.668;23.298;2022-09-03T03:56:25;94710.22;;;23.18;52.03
35676;BME280;21790;42.668;23.298;2022-09-03T03:58:51;94713.94;;;23.13;52.03
35676;BME280;21790;42.668;23.298;2022-09-03T04:01:22;94715.16;;;23.38;51.71
35676;BME280;21790;42.668;23.298;2022-09-03T04:03:48;94731.56;;;23.40;51.30
35676;BME280;21790;42.668;23.298;2022-09-03T04:06:16;94715.81;;;23.44;51.36
35676;BME280;21790;42.668;23.298;2022-09-03T04:08:43;94714.41;;;23.51;51.02
35676;BME280;21790;42.668;23.298;2022-09-03T04:11:11;94713.75;;;23.45;51.22
35676;BME280;21790;42.668;23.298;2022-09-03T04:13:39;94706.72;;;23.38;51.65
35676;BME280;21790;42.668;23.298;2022-09-03T04:16:08;94715.28;;;23.46;51.50
35676;BME280;21790;42.668;23.298;2022-09-03T04:18:35;94704.75;;;23.46;51.47
35676;BME280;21790;42.668;23.298;2022-09-03T04:21:12;94712.97;;;23.57;51.15
35676;BME280;21790;42.668;23.298;2022-09-03T04:23:43;94715.78;;;23.57;51.21
35676;BME280;21790;42.668;23.298;2022-09-03T04:26:10;94716.66;;;23.52;50.97
35676;BME280;21790;42.668;23.298;2022-09-03T04:28:37;94721.16;;;23.34;51.64
35676;BME280;21790;42.668;23.298;2022-09-03T04:31:04;94714.19;;;23.49;51.48
35676;BME280;21790;42.668;23.298;2022-09-03T04:33:31;94719.72;;;23.54;51.22
35676;BME280;21790;42.668;23.298;2022-09-03T04:36:20;94730.63;;;23.71;50.74
35676;BME280;21790;42.668;23.298;2022-09-03T04:38:48;94736.50;;;23.60;51.15
35676;BME280;21790;42.668;23.298;2022-09-03T04:41:18;94734.53;;;23.68;51.10
35676;BME280;21790;42.668;23.298;2022-09-03T04:43:44;94737.06;;;23.58;51.35
35676;BME280;21790;42.668;23.298;2022-09-03T04:46:12;94735.72;;;23.72;51.05
35676;BME280;21790;42.668;23.298;2022-09-03T04:48:38;94749.63;;;23.70;50.98
35676;BME280;21790;42.668;23.298;2022-09-03T04:51:10;94750.44;;;23.78;50.96
35676;BME280;21790;42.668;23.298;2022-09-03T04:53:39;94752.31;;;23.76;50.77
35676;BME280;21790;42.668;23.298;2022-09-03T04:56:12;94756.84;;;23.79;50.64
35676;BME280;21790;42.668;23.298;2022-09-03T04:58:38;94763.94;;;23.72;50.81
35676;BME280;21790;42.668;23.298;2022-09-03T05:01:10;94763.34;;;23.87;50.37
35676;BME280;21790;42.668;23.298;2022-09-03T05:03:36;94764.78;;;23.81;50.07
35676;BME280;21790;42.668;23.298;2022-09-03T05:06:03;94769.88;;;23.82;50.38
35676;BME280;21790;42.668;23.298;2022-09-03T05:08:30;94772.16;;;23.84;50.09
35676;BME280;21790;42.668;23.298;2022-09-03T05:10:58;94770.41;;;23.81;50.42
35676;BME280;21790;42.668;23.298;2022-09-03T05:13:25;94776.47;;;23.85;49.83
35676;BME280;21790;42.668;23.298;2022-09-03T05:15:50;94770.31;;;23.73;50.13
35676;BME280;21790;42.668;23.298;2022-09-03T05:18:16;94774.53;;;23.80;50.24
35676;BME280;21790;42.668;23.298;2022-09-03T05:20:42;94770.84;;;23.85;50.13
35676;BME280;21790;42.668;23.298;2022-09-03T05:23:07;94771.06;;;23.87;50.16
35676;BME280;21790;42.668;23.298;2022-09-03T05:25:33;94767.56;;;23.94;50.08
35676;BME280;21790;42.668;23.298;2022-09-03T05:27:58;94769.16;;;24.02;49.99
35676;BME280;21790;42.668;23.298;2022-09-03T05:30:24;94774.25;;;24.04;49.93
35676;BME280;21790;42.668;23.298;2022-09-03T05:32:50;94773.38;;;24.09;49.79
35676;BME280;21790;42.668;23.298;2022-09-03T05:35:16;94776.31;;;24.03;50.14
35676;BME280;21790;42.668;23.298;2022-09-03T05:37:42;94775.34;;;24.01;50.17
35676;BME280;21790;42.668;23.298;2022-09-03T05:40:08;94779.34;;;24.05;49.81
35676;BME280;21790;42.668;23.298;2022-09-03T05:42:37;94778.03;;;24.06;50.08
35676;BME280;21790;42.668;23.298;2022-09-03T05:45:08;94775.50;;;24.16;49.12
35676;BME280;21790;42.668;23.298;2022-09-03T05:47:37;94777.25;;;24.06;49.70
35676;BME280;21790;42.668;23.298;2022-09-03T05:50:07;94789.19;;;24.12;49.73
35676;BME280;21790;42.668;23.298;2022-09-03T05:52:35;94783.91;;;24.08;49.65
35676;BME280;21790;42.668;23.298;2022-09-03T05:55:00;94789.03;;;23.97;49.87
35676;BME280;21790;42.668;23.298;2022-09-03T05:57:26;94794.69;;;23.97;49.90
35676;BME280;21790;42.668;23.298;2022-09-03T05:59:51;94789.03;;;23.97;49.46
35676;BME280;21790;42.668;23.298;2022-09-03T06:02:17;94790.91;;;23.94;49.40
35676;BME280;21790;42.668;23.298;2022-09-03T06:04:43;94784.75;;;23.83;49.24
35676;BME280;21790;42.668;23.298;2022-09-03T06:07:08;94791.63;;;23.95;49.61
35676;BME280;21790;42.668;23.298;2022-09-03T06:09:34;94792.78;;;24.12;48.72
35676;BME280;21790;42.668;23.298;2022-09-03T06:11:59;94796.44;;;24.00;49.36
35676;BME280;21790;42.668;23.298;2022-09-03T06:14:25;94793.75;;;24.15;49.03
35676;BME280;21790;42.668;23.298;2022-09-03T06:16:50;94793.66;;;24.07;49.03
35676;BME280;21790;42.668;23.298;2022-09-03T06:19:17;94794.06;;;24.25;48.96
35676;BME280;21790;42.668;23.298;2022-09-03T06:21:44;94791.72;;;24.36;48.67
35676;BME280;21790;42.668;23.298;2022-09-03T06:24:20;94792.97;;;24.48;48.87
35676;BME280;21790;42.668;23.298;2022-09-03T06:26:49;94795.88;;;24.35;48.22
35676;BME280;21790;42.668;23.298;2022-09-03T06:29:15;94798.91;;;24.37;48.38
35676;BME280;21790;42.668;23.298;2022-09-03T06:31:42;94799.38;;;24.28;48.68
35676;BME280;21790;42.668;23.298;2022-09-03T06:34:08;94801.50;;;24.35;48.56
35676;BME280;21790;42.668;23.298;2022-09-03T06:36:34;94804.75;;;24.39;48.27
35676;BME280;21790;42.668;23.298;2022-09-03T06:38:59;94804.06;;;24.46;47.99
35676;BME280;21790;42.668;23.298;2022-09-03T06:41:27;94806.66;;;24.44;47.90
35676;BME280;21790;42.668;23.298;2022-09-03T06:43:57;94806.06;;;24.59;48.23
35676;BME280;21790;42.668;23.298;2022-09-03T06:46:26;94805.03;;;24.49;48.31
35676;BME280;21790;42.668;23.298;2022-09-03T06:48:51;94804.81;;;24.47;47.77
35676;BME280;21790;42.668;23.298;2022-09-03T06:51:19;94801.31;;;24.54;48.45
35676;BME280;21790;42.668;23.298;2022-09-03T06:53:48;94804.56;;;24.58;47.94
35676;BME280;21790;42.668;23.298;2022-09-03T06:56:19;94810.75;;;24.56;48.07
35676;BME280;21790;42.668;23.298;2022-09-03T06:58:51;94804.56;;;24.58;47.94
35676;BME280;21790;42.668;23.298;2022-09-03T07:01:19;94818.13;;;24.59;47.98
35676;BME280;21790;42.668;23.298;2022-09-03T07:03:47;94813.50;;;24.70;48.07
35676;BME280;21790;42.668;23.298;2022-09-03T07:06:15;94815.91;;;24.86;47.58
35676;BME280;21790;42.668;23.298;2022-09-03T07:08:42;94824.88;;;24.98;46.88
35676;BME280;21790;42.668;23.298;2022-09-03T07:11:09;94812.97;;;24.92;47.34
35676;BME280;21790;42.668;23.298;2022-09-03T07:13:37;94822.31;;;24.87;47.68
35676;BME280;21790;42.668;23.298;2022-09-03T07:16:10;94826.59;;;25.01;47.50
35676;BME280;21790;42.668;23.298;2022-09-03T07:18:36;94822.06;;;24.98;47.14
35676;BME280;21790;42.668;23.298;2022-09-03T07:21:04;94824.78;;;25.11;47.02
35676;BME280;21790;42.668;23.298;2022-09-03T07:23:31;94824.09;;;25.18;47.35
35676;BME280;21790;42.668;23.298;2022-09-03T07:25:59;94819.34;;;25.41;46.79
35676;BME280;21790;42.668;23.298;2022-09-03T07:28:26;94833.66;;;25.43;46.50
35676;BME280;21790;42.668;23.298;2022-09-03T07:30:52;94830.34;;;25.53;45.77
35676;BME280;21790;42.668;23.298;2022-09-03T07:33:18;94830.06;;;25.64;45.67
35676;BME280;21790;42.668;23.298;2022-09-03T07:35:45;94831.53;;;25.65;46.00
35676;BME280;21790;42.668;23.298;2022-09-03T07:38:11;94834.59;;;25.67;45.27
35676;BME280;21790;42.668;23.298;2022-09-03T07:40:40;94847.97;;;25.66;45.58
35676;BME280;21790;42.668;23.298;2022-09-03T07:43:06;94842.16;;;25.72;45.37
35676;BME280;21790;42.668;23.298;2022-09-03T07:45:31;94842.91;;;25.72;45.24
35676;BME280;21790;42.668;23.298;2022-09-03T07:47:58;94837.09;;;25.78;45.32
35676;BME280;21790;42.668;23.298;2022-09-03T07:50:24;94839.13;;;25.70;46.00
35676;BME280;21790;42.668;23.298;2022-09-03T07:52:55;94838.03;;;25.73;46.13
35676;BME280;21790;42.668;23.298;2022-09-03T07:55:21;94850.25;;;25.68;45.68
35676;BME280;21790;42.668;23.298;2022-09-03T07:57:46;94847.28;;;25.81;46.00
35676;BME280;21790;42.668;23.298;2022-09-03T08:00:12;94851.16;;;25.99;45.58
35676;BME280;21790;42.668;23.298;2022-09-03T08:02:38;94845.69;;;26.08;45.25
35676;BME280;21790;42.668;23.298;2022-09-03T08:05:04;94851.56;;;26.10;44.97
35676;BME280;21790;42.668;23.298;2022-09-03T08:07:30;94848.97;;;26.20;45.20
35676;BME280;21790;42.668;23.298;2022-09-03T08:09:55;94850.66;;;26.15;45.17
35676;BME280;21790;42.668;23.298;2022-09-03T08:12:21;94852.53;;;26.13;45.01
35676;BME280;21790;42.668;23.298;2022-09-03T08:14:46;94842.34;;;26.17;44.89
35676;BME280;21790;42.668;23.298;2022-09-03T08:17:12;94852.81;;;26.38;45.22
35676;BME280;21790;42.668;23.298;2022-09-03T08:19:38;94847.75;;;26.44;44.81
35676;BME280;21790;42.668;23.298;2022-09-03T08:22:05;94860.22;;;26.48;44.78
35676;BME280;21790;42.668;23.298;2022-09-03T08:24:30;94854.94;;;26.67;44.11
35676;BME280;21790;42.668;23.298;2022-09-03T08:26:56;94845.00;;;26.89;43.83
35676;BME280;21790;42.668;23.298;2022-09-03T08:29:22;94848.41;;;27.11;43.41
35676;BME280;21790;42.668;23.298;2022-09-03T08:31:47;94847.81;;;27.12;43.57
35676;BME280;21790;42.668;23.298;2022-09-03T08:34:13;94840.63;;;27.19;43.22
35676;BME280;21790;42.668;23.298;2022-09-03T08:36:38;94849.91;;;27.04;42.95
35676;BME280;21790;42.668;23.298;2022-09-03T08:39:06;94848.59;;;27.20;43.47
35676;BME280;21790;42.668;23.298;2022-09-03T08:52:30;94845.13;;;27.75;41.61
35676;BME280;21790;42.668;23.298;2022-09-03T08:58:07;94854.25;;;27.58;41.37
35676;BME280;21790;42.668;23.298;2022-09-03T09:01:25;94844.00;;;27.40;41.91
35676;BME280;21790;42.668;23.298;2022-09-03T09:14:45;94853.31;;;27.02;42.79
35676;BME280;21790;42.668;23.298;2022-09-03T09:17:36;94852.56;;;27.10;41.87
35676;BME280;21790;42.668;23.298;2022-09-03T09:22:58;94852.94;;;27.06;42.45
35676;BME280;21790;42.668;23.298;2022-09-03T09:25:25;94852.75;;;26.96;42.85
35676;BME280;21790;42.668;23.298;2022-09-03T09:30:22;94852.31;;;26.85;43.17
35676;BME280;21790;42.668;23.298;2022-09-03T09:32:48;94860.50;;;26.88;43.39
35676;BME280;21790;42.668;23.298;2022-09-03T09:35:15;94855.75;;;26.83;43.36
35676;BME280;21790;42.668;23.298;2022-09-03T09:37:56;94857.66;;;26.88;43.46
35676;BME280;21790;42.668;23.298;2022-09-03T09:45:31;94862.91;;;26.69;43.66
35676;BME280;21790;42.668;23.298;2022-09-03T09:47:58;94855.75;;;26.83;43.54
35676;BME280;21790;42.668;23.298;2022-09-03T09:50:24;94853.09;;;26.85;43.08
35676;BME280;21790;42.668;23.298;2022-09-03T09:53:06;94852.19;;;26.98;43.17
35676;BME280;21790;42.668;23.298;2022-09-03T09:55:51;94854.63;;;27.17;42.99
35676;BME280;21790;42.668;23.298;2022-09-03T09:58:21;94858.03;;;27.30;43.11
35676;BME280;21790;42.668;23.298;2022-09-03T10:03:23;94871.66;;;27.32;43.03
35676;BME280;21790;42.668;23.298;2022-09-03T10:06:07;94866.72;;;27.55;42.44
35676;BME280;21790;42.668;23.298;2022-09-03T10:09:04;94863.47;;;27.74;42.05
35676;BME280;21790;42.668;23.298;2022-09-03T10:11:31;94861.13;;;28.03;41.59
35676;BME280;21790;42.668;23.298;2022-09-03T10:13:57;94850.25;;;28.24;41.64
35676;BME280;21790;42.668;23.298;2022-09-03T10:16:32;94851.25;;;28.51;41.00
35676;BME280;21790;42.668;23.298;2022-09-03T10:21:42;94849.94;;;28.85;40.30
35676;BME280;21790;42.668;23.298;2022-09-03T10:26:50;94844.94;;;28.93;39.66
35676;BME280;21790;42.668;23.298;2022-09-03T10:29:20;94838.38;;;29.07;38.97
35676;BME280;21790;42.668;23.298;2022-09-03T10:31:52;94847.78;;;29.18;38.98
35676;BME280;21790;42.668;23.298;2022-09-03T10:34:37;94842.06;;;29.42;38.72
35676;BME280;21790;42.668;23.298;2022-09-03T10:42:59;94847.47;;;29.56;38.86
35676;BME280;21790;42.668;23.298;2022-09-03T10:53:37;94845.28;;;29.81;37.73
35676;BME280;21790;42.668;23.298;2022-09-03T10:56:16;94847.47;;;29.73;38.39
35676;BME280;21790;42.668;23.298;2022-09-03T10:59:03;94845.97;;;29.89;37.71
35676;BME280;21790;42.668;23.298;2022-09-03T11:07:01;94843.38;;;30.01;37.26
35676;BME280;21790;42.668;23.298;2022-09-03T11:09:36;94847.16;;;30.03;37.39
35676;BME280;21790;42.668;23.298;2022-09-03T11:12:23;94836.41;;;30.11;37.48
35676;BME280;21790;42.668;23.298;2022-09-03T11:15:12;94843.13;;;30.06;37.06
35676;BME280;21790;42.668;23.298;2022-09-03T11:17:47;94846.22;;;30.01;37.28
35676;BME280;21790;42.668;23.298;2022-09-03T11:22:39;94850.31;;;30.07;37.16
35676;BME280;21790;42.668;23.298;2022-09-03T11:25:07;94850.50;;;29.92;38.05
35676;BME280;21790;42.668;23.298;2022-09-03T11:30:12;94851.50;;;30.04;37.46
35676;BME280;21790;42.668;23.298;2022-09-03T11:33:22;94846.66;;;30.14;36.78
35676;BME280;21790;42.668;23.298;2022-09-03T11:35:40;94843.97;;;30.16;36.98
35676;BME280;21790;42.668;23.298;2022-09-03T11:41:13;94843.88;;;30.07;37.22
35676;BME280;21790;42.668;23.298;2022-09-03T11:43:41;94846.66;;;29.97;37.44
35676;BME280;21790;42.668;23.298;2022-09-03T11:48:54;94850.66;;;30.11;36.91
35676;BME280;21790;42.668;23.298;2022-09-03T11:51:28;94843.28;;;30.08;36.95
35676;BME280;21790;42.668;23.298;2022-09-03T11:53:56;94846.31;;;30.10;37.11
35676;BME280;21790;42.668;23.298;2022-09-03T11:56:23;94844.81;;;30.09;37.34
35676;BME280;21790;42.668;23.298;2022-09-03T11:59:02;94843.63;;;30.12;36.98
35676;BME280;21790;42.668;23.298;2022-09-03T12:01:28;94841.19;;;30.09;37.23
35676;BME280;21790;42.668;23.298;2022-09-03T12:04:04;94837.59;;;29.91;36.89
35676;BME280;21790;42.668;23.298;2022-09-03T12:07:13;94833.41;;;29.92;36.87
35676;BME280;21790;42.668;23.298;2022-09-03T12:18:21;94833.63;;;29.86;36.64
35676;BME280;21790;42.668;23.298;2022-09-03T12:21:01;94818.63;;;29.86;37.08
35676;BME280;21790;42.668;23.298;2022-09-03T12:23:43;94823.50;;;29.76;37.33
35676;BME280;21790;42.668;23.298;2022-09-03T12:26:21;94828.94;;;29.81;37.08
35676;BME280;21790;42.668;23.298;2022-09-03T12:28:52;94821.47;;;29.69;37.11
35676;BME280;21790;42.668;23.298;2022-09-03T12:31:27;94819.91;;;29.75;37.06
35676;BME280;21790;42.668;23.298;2022-09-03T12:34:09;94824.00;;;29.82;36.74
35676;BME280;21790;42.668;23.298;2022-09-03T12:36:38;94813.38;;;29.82;37.25
35676;BME280;21790;42.668;23.298;2022-09-03T12:39:24;94818.22;;;29.72;37.01
35676;BME280;21790;42.668;23.298;2022-09-03T12:44:37;94824.06;;;29.57;37.34
35676;BME280;21790;42.668;23.298;2022-09-03T12:47:09;94814.88;;;29.49;37.52
35676;BME280;21790;42.668;23.298;2022-09-03T12:49:37;94817.38;;;29.62;37.44
35676;BME280;21790;42.668;23.298;2022-09-03T12:52:28;94813.44;;;29.75;37.40
35676;BME280;21790;42.668;23.298;2022-09-03T12:55:12;94809.59;;;29.80;37.35
35676;BME280;21790;42.668;23.298;2022-09-03T12:57:52;94810.84;;;29.69;37.44
35676;BME280;21790;42.668;23.298;2022-09-03T13:00:20;94812.69;;;29.57;37.18
35676;BME280;21790;42.668;23.298;2022-09-03T13:05:35;94805.59;;;29.66;37.28
35676;BME280;21790;42.668;23.298;2022-09-03T13:08:06;94806.75;;;29.63;37.49
35676;BME280;21790;42.668;23.298;2022-09-03T13:10:35;94797.88;;;29.59;37.49
35676;BME280;21790;42.668;23.298;2022-09-03T13:15:59;94797.28;;;29.43;38.10
35676;BME280;21790;42.668;23.298;2022-09-03T13:24:27;94789.56;;;29.36;37.71
35676;BME280;21790;42.668;23.298;2022-09-03T13:33:02;94773.41;;;29.56;36.58
35676;BME280;21790;42.668;23.298;2022-09-03T13:40:57;94782.03;;;29.48;37.00
35676;BME280;21790;42.668;23.298;2022-09-03T13:43:44;94783.97;;;29.45;36.54
35676;BME280;21790;42.668;23.298;2022-09-03T13:46:23;94777.09;;;29.48;36.72
35676;BME280;21790;42.668;23.298;2022-09-03T13:48:58;94775.75;;;29.49;36.51
35676;BME280;21790;42.668;23.298;2022-09-03T13:51:58;94779.25;;;29.58;36.69
35676;BME280;21790;42.668;23.298;2022-09-03T13:54:36;94775.75;;;29.49;36.46
35676;BME280;21790;42.668;23.298;2022-09-03T13:57:21;94775.06;;;29.41;36.28
35676;BME280;21790;42.668;23.298;2022-09-03T13:59:52;94770.06;;;29.49;36.12
35676;BME280;21790;42.668;23.298;2022-09-03T14:05:04;94782.97;;;29.50;35.80
35676;BME280;21790;42.668;23.298;2022-09-03T14:07:43;94792.03;;;29.57;36.20
35676;BME280;21790;42.668;23.298;2022-09-03T14:10:27;94796.59;;;29.52;36.94
35676;BME280;21790;42.668;23.298;2022-09-03T14:13:05;94781.78;;;29.36;37.13
35676;BME280;21790;42.668;23.298;2022-09-03T14:15:42;94782.38;;;29.35;37.02
35676;BME280;21790;42.668;23.298;2022-09-03T14:21:23;94783.56;;;29.24;36.74
35676;BME280;21790;42.668;23.298;2022-09-03T14:24:19;94773.88;;;29.27;36.90
35676;BME280;21790;42.668;23.298;2022-09-03T14:26:55;94777.53;;;29.20;36.30
35676;BME280;21790;42.668;23.298;2022-09-03T14:29:33;94772.69;;;29.30;36.43
35676;BME280;21790;42.668;23.298;2022-09-03T14:32:21;94783.09;;;29.18;36.91
35676;BME280;21790;42.668;23.298;2022-09-03T14:40:44;94781.06;;;29.11;37.35
35676;BME280;21790;42.668;23.298;2022-09-03T14:49:18;94786.69;;;28.94;37.96
35676;BME280;21790;42.668;23.298;2022-09-03T14:52:00;94787.50;;;28.87;37.63
35676;BME280;21790;42.668;23.298;2022-09-03T14:54:57;94784.09;;;28.88;37.81
35676;BME280;21790;42.668;23.298;2022-09-03T15:09:44;94785.66;;;28.82;37.48
35676;BME280;21790;42.668;23.298;2022-09-03T15:12:31;94793.03;;;28.85;37.55
35676;BME280;21790;42.668;23.298;2022-09-03T15:15:02;94780.97;;;28.77;37.57
35676;BME280;21790;42.668;23.298;2022-09-03T15:20:25;94800.59;;;28.57;37.71
35676;BME280;21790;42.668;23.298;2022-09-03T15:28:18;94794.22;;;28.49;37.84
35676;BME280;21790;42.668;23.298;2022-09-03T15:36:42;94793.28;;;28.47;37.81
35676;BME280;21790;42.668;23.298;2022-09-03T15:39:13;94793.78;;;28.28;37.48
35676;BME280;21790;42.668;23.298;2022-09-03T15:41:47;94803.06;;;28.28;38.05
35676;BME280;21790;42.668;23.298;2022-09-03T15:44:16;94804.38;;;28.27;38.14
35676;BME280;21790;42.668;23.298;2022-09-03T15:46:52;94808.16;;;28.30;38.24
35676;BME280;21790;42.668;23.298;2022-09-03T15:49:58;94817.03;;;28.34;38.13
35676;BME280;21790;42.668;23.298;2022-09-03T15:55:12;94811.94;;;28.33;37.96
35676;BME280;21790;42.668;23.298;2022-09-03T16:00:40;94816.63;;;28.38;37.76
35676;BME280;21790;42.668;23.298;2022-09-03T16:03:18;94813.03;;;28.37;37.72
35676;BME280;21790;42.668;23.298;2022-09-03T16:05:53;94813.22;;;28.39;37.52
35676;BME280;21790;42.668;23.298;2022-09-03T16:08:58;94824.41;;;28.37;37.50
35676;BME280;21790;42.668;23.298;2022-09-03T16:11:49;94826.09;;;28.40;37.74
35676;BME280;21790;42.668;23.298;2022-09-03T16:14:32;94826.56;;;28.29;37.85
35676;BME280;21790;42.668;23.298;2022-09-03T16:17:08;94827.84;;;28.36;37.65
35676;BME280;21790;42.668;23.298;2022-09-03T16:22:37;94833.53;;;28.36;37.89
35676;BME280;21790;42.668;23.298;2022-09-03T16:25:14;94833.91;;;28.32;37.71
35676;BME280;21790;42.668;23.298;2022-09-03T16:27:53;94842.09;;;28.28;38.04
35676;BME280;21790;42.668;23.298;2022-09-03T16:36:16;94862.41;;;28.17;37.63
35676;BME280;21790;42.668;23.298;2022-09-03T16:38:58;94863.97;;;28.03;37.33
35676;BME280;21790;42.668;23.298;2022-09-03T16:41:35;94862.03;;;28.05;37.32
35676;BME280;21790;42.668;23.298;2022-09-03T16:47:18;94862.03;;;28.05;38.00
35676;BME280;21790;42.668;23.298;2022-09-03T16:52:29;94863.72;;;28.16;37.97
35676;BME280;21790;42.668;23.298;2022-09-03T16:58:20;94858.09;;;28.01;37.38
35676;BME280;21790;42.668;23.298;2022-09-03T17:01:16;94866.06;;;27.95;38.70
35676;BME280;21790;42.668;23.298;2022-09-03T17:09:19;94870.31;;;27.63;41.53
35676;BME280;21790;42.668;23.298;2022-09-03T17:23:23;94900.97;;;27.42;42.11
35676;BME280;21790;42.668;23.298;2022-09-03T17:29:02;94906.84;;;27.29;42.70
35676;BME280;21790;42.668;23.298;2022-09-03T17:31:45;94881.09;;;27.12;42.44